Time;durP1;ratioP1;P1;durP2;ratioP2;P2;SDS_P1;SDS_P2;PMS_P1;PMS_P2;Temp;Humidity;BMP_temperature;BMP_pressure;BME280_temperature;BME280_humidity;BME280_pressure;Samples;Min_cycle;Max_cycle;Signal;HPM_P1;HPM_P2
2023/07/08 00:01:08;;;;;;;3.25;2.53;;;;;;;;;;4967390;28;20184;-71
2023/07/08 00:03:34;;;;;;;2.75;2.42;;;;;;;;;;4981900;28;20200;-71
2023/07/08 00:05:59;;;;;;;3.13;2.35;;;;;;;;;;4974329;28;20192;-72
2023/07/08 00:08:24;;;;;;;3.75;2.33;;;;;;;;;;4970006;28;20541;-72
2023/07/08 00:10:50;;;;;;;6.85;2.55;;;;;;;;;;4971542;28;20672;-71
2023/07/08 00:15:49;;;;;;;3.70;2.63;;;;;;;;;;4967270;28;20995;-66
2023/07/08 00:18:16;;;;;;;4.05;2.08;;;;;;;;;;4976894;28;20199;-65
2023/07/08 00:20:45;;;;;;;3.53;2.28;;;;;;;;;;4976023;28;20180;-66
2023/07/08 00:23:11;;;;;;;11.40;3.38;;;;;;;;;;4971504;28;20571;-66
2023/07/08 00:25:36;;;;;;;4.93;2.50;;;;;;;;;;4965075;28;20192;-66
2023/07/08 00:28:02;;;;;;;4.60;2.30;;;;;;;;;;4963916;28;20202;-66
2023/07/08 00:30:31;;;;;;;2.80;2.33;;;;;;;;;;4967028;28;20188;-67
2023/07/08 00:32:57;;;;;;;4.68;2.55;;;;;;;;;;4955860;28;20683;-67
2023/07/08 00:35:34;;;;;;;6.45;2.33;;;;;;;;;;4963586;28;20968;-67
2023/07/08 00:38:02;;;;;;;4.90;2.28;;;;;;;;;;4963635;28;20208;-67
2023/07/08 00:40:32;;;;;;;3.17;2.08;;;;;;;;;;4966268;28;20195;-67
2023/07/08 00:43:02;;;;;;;5.82;2.30;;;;;;;;;;4970772;28;20213;-68
2023/07/08 00:45:46;;;;;;;6.10;2.35;;;;;;;;;;4971695;28;20193;-67
2023/07/08 00:48:11;;;;;;;4.40;2.70;;;;;;;;;;4962510;28;20718;-67
2023/07/08 00:50:37;;;;;;;5.07;2.95;;;;;;;;;;4968323;28;20284;-67
2023/07/08 00:53:21;;;;;;;4.70;2.30;;;;;;;;;;4969493;28;20315;-67
2023/07/08 00:55:46;;;;;;;2.85;2.35;;;;;;;;;;4970415;28;20556;-67
2023/07/08 00:58:11;;;;;;;4.68;2.50;;;;;;;;;;4970079;28;20259;-67
2023/07/08 01:00:37;;;;;;;5.00;2.50;;;;;;;;;;4969971;28;20207;-67
2023/07/08 01:03:03;;;;;;;3.67;2.20;;;;;;;;;;4969640;28;20189;-67
2023/07/08 01:05:29;;;;;;;4.03;2.58;;;;;;;;;;4970920;28;20694;-66
2023/07/08 01:07:57;;;;;;;4.22;2.60;;;;;;;;;;4966524;28;21606;-67
2023/07/08 01:10:26;;;;;;;4.70;2.47;;;;;;;;;;4966456;28;20188;-67
2023/07/08 01:12:54;;;;;;;3.92;2.95;;;;;;;;;;4970476;28;20188;-67
2023/07/08 01:15:21;;;;;;;3.95;2.70;;;;;;;;;;4966658;28;20537;-67
2023/07/08 01:17:46;;;;;;;3.50;2.70;;;;;;;;;;4963643;28;20207;-67
2023/07/08 01:20:15;;;;;;;4.95;2.60;;;;;;;;;;4964922;28;20892;-67
2023/07/08 01:22:41;;;;;;;7.75;2.75;;;;;;;;;;4964177;28;21022;-67
2023/07/08 01:25:08;;;;;;;4.72;2.70;;;;;;;;;;4963340;28;20208;-67
2023/07/08 01:27:35;;;;;;;3.47;2.63;;;;;;;;;;4964510;28;20581;-66
2023/07/08 01:30:01;;;;;;;3.22;2.38;;;;;;;;;;4964001;28;20184;-67
2023/07/08 01:32:26;;;;;;;3.95;2.50;;;;;;;;;;4960591;28;20669;-67
2023/07/08 01:35:00;;;;;;;3.05;2.70;;;;;;;;;;4957473;28;20216;-67
2023/07/08 01:37:31;;;;;;;4.78;2.72;;;;;;;;;;4969156;28;20247;-67
2023/07/08 01:39:56;;;;;;;3.75;2.50;;;;;;;;;;4961468;28;20226;-67
2023/07/08 01:42:21;;;;;;;4.07;2.45;;;;;;;;;;4963630;28;20616;-67
2023/07/08 01:44:47;;;;;;;4.22;2.70;;;;;;;;;;4963181;28;20258;-67
2023/07/08 01:47:17;;;;;;;5.38;3.17;;;;;;;;;;4967067;28;20176;-67
2023/07/08 01:49:44;;;;;;;3.92;2.42;;;;;;;;;;4963954;28;20173;-67
2023/07/08 01:52:10;;;;;;;3.80;2.90;;;;;;;;;;4963250;28;20188;-67
2023/07/08 01:54:35;;;;;;;5.03;3.22;;;;;;;;;;4969074;28;20279;-67
2023/07/08 01:57:02;;;;;;;2.75;2.47;;;;;;;;;;4965143;28;20620;-67
2023/07/08 01:59:27;;;;;;;3.83;2.83;;;;;;;;;;4970433;28;20307;-67
2023/07/08 02:01:55;;;;;;;4.70;2.65;;;;;;;;;;4970463;28;20275;-67
2023/07/08 02:04:21;;;;;;;4.57;2.45;;;;;;;;;;4970028;28;20204;-67
2023/07/08 02:06:57;;;;;;;6.40;3.00;;;;;;;;;;4966060;28;20553;-66
2023/07/08 02:09:23;;;;;;;4.07;2.92;;;;;;;;;;4961997;28;20179;-67
2023/07/08 02:11:48;;;;;;;4.57;2.50;;;;;;;;;;4969652;28;20716;-67
2023/07/08 02:14:13;;;;;;;3.33;2.80;;;;;;;;;;4970155;28;20234;-67
2023/07/08 02:16:38;;;;;;;4.68;2.65;;;;;;;;;;4968752;28;20275;-67
2023/07/08 02:19:04;;;;;;;4.05;3.00;;;;;;;;;;4970829;28;20263;-67
2023/07/08 02:21:30;;;;;;;3.92;3.15;;;;;;;;;;4970052;28;20444;-67
2023/07/08 02:23:56;;;;;;;3.17;2.35;;;;;;;;;;4963662;28;20184;-67
2023/07/08 02:26:21;;;;;;;4.15;2.80;;;;;;;;;;4957513;28;20661;-67
2023/07/08 02:28:47;;;;;;;4.10;3.05;;;;;;;;;;4963195;28;20180;-66
2023/07/08 02:31:12;;;;;;;4.45;2.85;;;;;;;;;;4963558;28;20188;-67
2023/07/08 02:33:37;;;;;;;3.38;2.90;;;;;;;;;;4962854;28;20827;-67
2023/07/08 02:36:02;;;;;;;3.42;2.83;;;;;;;;;;4963114;28;20184;-67
2023/07/08 02:38:27;;;;;;;3.17;2.83;;;;;;;;;;4964213;28;20220;-67
2023/07/08 02:40:53;;;;;;;4.55;2.63;;;;;;;;;;4960860;28;20189;-66
2023/07/08 02:43:18;;;;;;;5.75;2.67;;;;;;;;;;4963234;28;20177;-67
2023/07/08 02:45:43;;;;;;;3.30;3.00;;;;;;;;;;4956862;28;20247;-67
2023/07/08 02:48:08;;;;;;;3.38;2.50;;;;;;;;;;4964381;28;20581;-67
2023/07/08 02:50:33;;;;;;;4.28;2.53;;;;;;;;;;4965711;28;20939;-67
2023/07/08 02:52:59;;;;;;;3.97;2.45;;;;;;;;;;4984377;28;20737;-67
2023/07/08 02:55:24;;;;;;;3.45;2.83;;;;;;;;;;4974051;28;20198;-67
2023/07/08 02:57:49;;;;;;;6.90;3.25;;;;;;;;;;4971020;28;20279;-67
2023/07/08 03:00:14;;;;;;;4.50;3.17;;;;;;;;;;4969059;28;20176;-67
2023/07/08 03:02:40;;;;;;;3.85;2.65;;;;;;;;;;4969223;28;20259;-66
2023/07/08 03:05:05;;;;;;;4.85;3.00;;;;;;;;;;4968889;28;20216;-67
2023/07/08 03:07:30;;;;;;;4.50;2.50;;;;;;;;;;4971204;28;20654;-67
2023/07/08 03:09:56;;;;;;;3.05;2.33;;;;;;;;;;4970881;28;20176;-67
2023/07/08 03:12:21;;;;;;;3.92;2.70;;;;;;;;;;4963779;28;20227;-67
2023/07/08 03:14:46;;;;;;;5.00;2.90;;;;;;;;;;4968238;28;20801;-67
2023/07/08 03:17:11;;;;;;;6.10;3.15;;;;;;;;;;4972732;28;20729;-67
2023/07/08 03:19:37;;;;;;;3.60;2.70;;;;;;;;;;4971182;28;20247;-67
2023/07/08 03:22:04;;;;;;;2.65;2.45;;;;;;;;;;4972851;28;20177;-67
2023/07/08 03:24:30;;;;;;;3.83;2.25;;;;;;;;;;4972934;28;20208;-67
2023/07/08 03:26:55;;;;;;;5.18;2.90;;;;;;;;;;4971159;28;20658;-67
2023/07/08 03:29:20;;;;;;;4.35;2.40;;;;;;;;;;4969545;28;20642;-66
2023/07/08 03:31:45;;;;;;;5.15;2.60;;;;;;;;;;4971522;28;20648;-67
2023/07/08 03:34:11;;;;;;;3.33;2.65;;;;;;;;;;4973282;28;20219;-67
2023/07/08 03:36:44;;;;;;;3.47;2.42;;;;;;;;;;4974106;28;20315;-67
2023/07/08 03:39:09;;;;;;;3.15;2.60;;;;;;;;;;4971154;28;20706;-67
2023/07/08 03:41:34;;;;;;;7.45;3.00;;;;;;;;;;4972886;28;20267;-67
2023/07/08 03:43:59;;;;;;;5.20;2.92;;;;;;;;;;4970926;28;20235;-67
2023/07/08 03:46:24;;;;;;;3.75;2.80;;;;;;;;;;4965546;28;20271;-66
2023/07/08 03:48:50;;;;;;;3.03;2.38;;;;;;;;;;4969885;28;20185;-67
2023/07/08 03:51:27;;;;;;;3.67;2.80;;;;;;;;;;4971622;28;20180;-66
2023/07/08 03:53:52;;;;;;;2.78;2.50;;;;;;;;;;4970497;28;20196;-67
2023/07/08 03:56:17;;;;;;;3.35;2.47;;;;;;;;;;4971689;28;20322;-67
2023/07/08 03:58:43;;;;;;;5.22;3.03;;;;;;;;;;4972226;28;20708;-67
2023/07/08 04:01:34;;;;;;;3.95;3.08;;;;;;;;;;4969871;28;20191;-67
2023/07/08 04:03:59;;;;;;;7.20;2.70;;;;;;;;;;4965846;28;20287;-67
2023/07/08 04:06:25;;;;;;;4.68;2.80;;;;;;;;;;4973011;28;20300;-67
2023/07/08 04:08:51;;;;;;;5.28;3.08;;;;;;;;;;4969797;28;20247;-67
2023/07/08 04:11:19;;;;;;;3.30;2.25;;;;;;;;;;4972431;28;20184;-67
2023/07/08 04:13:45;;;;;;;3.42;2.10;;;;;;;;;;4971889;28;20234;-67
2023/07/08 04:16:16;;;;;;;3.72;2.45;;;;;;;;;;4972990;28;20235;-67
2023/07/08 04:18:41;;;;;;;3.85;2.70;;;;;;;;;;4970559;28;20706;-67
2023/07/08 04:21:06;;;;;;;5.38;2.92;;;;;;;;;;4971638;28;20207;-67
2023/07/08 04:23:31;;;;;;;4.68;2.58;;;;;;;;;;4971196;28;20172;-67
2023/07/08 04:25:57;;;;;;;5.05;2.67;;;;;;;;;;4971308;28;20893;-67
2023/07/08 04:28:22;;;;;;;3.15;2.30;;;;;;;;;;4973355;28;20231;-67
2023/07/08 04:30:48;;;;;;;4.18;2.53;;;;;;;;;;4971073;28;20172;-67
2023/07/08 04:33:14;;;;;;;3.30;2.42;;;;;;;;;;4973256;28;20196;-67
2023/07/08 04:35:39;;;;;;;3.60;2.15;;;;;;;;;;4971882;28;20662;-67
2023/07/08 04:38:09;;;;;;;4.18;2.88;;;;;;;;;;4973358;28;20247;-67
2023/07/08 04:40:36;;;;;;;3.28;2.60;;;;;;;;;;4964534;28;20187;-67
2023/07/08 04:43:02;;;;;;;2.15;1.95;;;;;;;;;;4971766;28;20177;-67
2023/07/08 04:45:28;;;;;;;11.13;2.97;;;;;;;;;;4973032;28;20199;-67
2023/07/08 04:47:53;;;;;;;4.45;2.08;;;;;;;;;;4974739;28;20843;-67
2023/07/08 04:50:18;;;;;;;4.53;2.83;;;;;;;;;;4966851;28;20196;-67
2023/07/08 04:52:43;;;;;;;3.83;2.90;;;;;;;;;;4968711;28;20185;-67
2023/07/08 04:55:09;;;;;;;3.90;2.40;;;;;;;;;;4969079;28;20208;-67
2023/07/08 04:57:34;;;;;;;2.95;2.25;;;;;;;;;;4971015;28;20259;-67
2023/07/08 05:00:00;;;;;;;6.35;2.63;;;;;;;;;;4971519;28;20176;-67
2023/07/08 05:02:25;;;;;;;4.15;2.47;;;;;;;;;;4969622;28;20177;-67
2023/07/08 05:04:50;;;;;;;2.88;2.50;;;;;;;;;;4964762;28;20196;-67
2023/07/08 05:07:16;;;;;;;2.92;2.30;;;;;;;;;;4972059;28;20188;-67
2023/07/08 05:09:41;;;;;;;3.85;2.30;;;;;;;;;;4970049;28;20184;-67
2023/07/08 05:12:06;;;;;;;5.90;2.87;;;;;;;;;;4967739;28;20231;-67
2023/07/08 05:14:31;;;;;;;3.13;2.58;;;;;;;;;;4968816;28;20466;-67
2023/07/08 05:16:57;;;;;;;4.25;2.22;;;;;;;;;;4964341;28;20559;-67
2023/07/08 05:19:23;;;;;;;3.65;2.55;;;;;;;;;;4969730;28;20294;-67
2023/07/08 05:21:48;;;;;;;2.53;2.00;;;;;;;;;;4970118;28;20203;-67
2023/07/08 05:24:13;;;;;;;4.15;2.38;;;;;;;;;;4970929;28;20201;-67
2023/07/08 05:26:38;;;;;;;2.47;2.20;;;;;;;;;;4966978;28;20238;-67
2023/07/08 05:29:05;;;;;;;3.28;2.33;;;;;;;;;;4966672;28;20235;-67
2023/07/08 05:31:30;;;;;;;4.03;2.58;;;;;;;;;;4962188;28;20181;-67
2023/07/08 05:33:55;;;;;;;8.13;2.45;;;;;;;;;;4962133;28;20203;-67
2023/07/08 05:36:20;;;;;;;5.07;2.40;;;;;;;;;;4964621;28;20181;-67
2023/07/08 05:38:46;;;;;;;3.17;2.20;;;;;;;;;;4964481;28;20253;-67
2023/07/08 05:41:12;;;;;;;8.10;3.25;;;;;;;;;;4963904;28;20262;-68
2023/07/08 05:43:37;;;;;;;3.65;2.80;;;;;;;;;;4962997;28;20235;-67
2023/07/08 05:46:02;;;;;;;2.92;2.20;;;;;;;;;;4968075;28;20688;-67
2023/07/08 05:48:28;;;;;;;4.10;2.42;;;;;;;;;;4967860;28;20609;-67
2023/07/08 05:50:53;;;;;;;5.47;2.60;;;;;;;;;;4970135;28;20184;-67
2023/07/08 05:53:20;;;;;;;4.47;2.72;;;;;;;;;;4972689;28;20184;-67
2023/07/08 05:55:45;;;;;;;8.43;3.15;;;;;;;;;;4971882;28;20191;-66
2023/07/08 05:58:10;;;;;;;3.13;2.00;;;;;;;;;;4971095;28;20212;-67
2023/07/08 06:00:36;;;;;;;2.35;1.92;;;;;;;;;;4962207;28;20176;-67
2023/07/08 06:03:01;;;;;;;3.83;2.25;;;;;;;;;;4967779;28;20266;-67
2023/07/08 06:05:26;;;;;;;3.73;2.40;;;;;;;;;;4969031;28;20290;-67
2023/07/08 06:07:51;;;;;;;4.55;2.50;;;;;;;;;;4966644;28;20569;-68
2023/07/08 06:10:16;;;;;;;3.92;2.33;;;;;;;;;;4966524;28;20188;-67
2023/07/08 06:12:42;;;;;;;4.03;2.50;;;;;;;;;;4970284;28;20180;-67
2023/07/08 06:15:07;;;;;;;4.30;2.58;;;;;;;;;;4960476;28;20216;-67
2023/07/08 06:17:32;;;;;;;4.40;2.58;;;;;;;;;;4963379;28;20410;-67
2023/07/08 06:19:57;;;;;;;4.10;2.38;;;;;;;;;;4963200;28;20304;-67
2023/07/08 06:22:23;;;;;;;3.80;2.00;;;;;;;;;;4966793;28;20213;-67
2023/07/08 06:24:48;;;;;;;4.15;2.50;;;;;;;;;;4972894;28;20499;-67
2023/07/08 06:27:13;;;;;;;6.43;2.50;;;;;;;;;;4974478;28;20271;-67
2023/07/08 06:29:38;;;;;;;3.72;2.35;;;;;;;;;;4973629;28;20172;-67
2023/07/08 06:32:04;;;;;;;3.13;2.33;;;;;;;;;;4973817;28;20235;-67
2023/07/08 06:34:29;;;;;;;4.30;2.67;;;;;;;;;;4974261;28;20441;-67
2023/07/08 06:36:54;;;;;;;3.22;2.58;;;;;;;;;;4975315;28;20187;-66
2023/07/08 06:39:19;;;;;;;4.27;2.50;;;;;;;;;;4982673;28;20215;-67
2023/07/08 06:41:45;;;;;;;2.58;2.05;;;;;;;;;;4973796;28;20422;-67
2023/07/08 06:44:10;;;;;;;3.42;2.83;;;;;;;;;;4972078;28;20207;-67
2023/07/08 06:46:36;;;;;;;3.70;2.63;;;;;;;;;;4972512;28;20785;-67
2023/07/08 06:49:01;;;;;;;5.20;2.63;;;;;;;;;;4972889;28;20192;-67
2023/07/08 06:51:26;;;;;;;6.45;2.70;;;;;;;;;;4972576;28;20177;-66
2023/07/08 06:53:51;;;;;;;5.03;2.88;;;;;;;;;;4976984;28;20207;-67
2023/07/08 06:56:17;;;;;;;3.17;2.63;;;;;;;;;;4972774;28;20193;-66
2023/07/08 06:58:42;;;;;;;3.25;2.53;;;;;;;;;;4968632;28;20204;-67
2023/07/08 07:01:07;;;;;;;2.63;2.17;;;;;;;;;;4965957;28;20596;-67
2023/07/08 07:03:32;;;;;;;2.67;2.47;;;;;;;;;;4966896;28;20580;-67
2023/07/08 07:05:58;;;;;;;3.75;2.55;;;;;;;;;;4966463;28;20180;-66
2023/07/08 07:08:23;;;;;;;4.00;2.47;;;;;;;;;;4965044;28;20196;-66
2023/07/08 07:10:48;;;;;;;2.67;2.42;;;;;;;;;;4965319;28;20490;-66
2023/07/08 07:13:13;;;;;;;4.18;2.20;;;;;;;;;;4965493;28;20195;-66
2023/07/08 07:15:39;;;;;;;4.68;2.60;;;;;;;;;;4967079;28;20200;-67
2023/07/08 07:18:04;;;;;;;3.60;2.50;;;;;;;;;;4966419;28;20211;-66
2023/07/08 07:20:29;;;;;;;8.63;2.72;;;;;;;;;;4965997;28;20267;-66
2023/07/08 07:22:55;;;;;;;6.15;2.53;;;;;;;;;;4965966;28;20678;-66
2023/07/08 07:25:20;;;;;;;2.97;2.03;;;;;;;;;;4964757;28;20674;-66
2023/07/08 07:27:46;;;;;;;6.38;2.95;;;;;;;;;;4966684;28;20215;-66
2023/07/08 07:30:15;;;;;;;4.45;2.80;;;;;;;;;;4966056;28;20218;-66
2023/07/08 07:32:41;;;;;;;4.43;2.45;;;;;;;;;;4965118;28;20180;-66
2023/07/08 07:35:06;;;;;;;3.15;2.22;;;;;;;;;;4964498;28;20212;-67
2023/07/08 07:37:31;;;;;;;4.43;2.22;;;;;;;;;;4965955;28;20212;-67
2023/07/08 07:39:57;;;;;;;5.13;2.57;;;;;;;;;;4965882;28;20208;-67
2023/07/08 07:42:22;;;;;;;4.20;2.50;;;;;;;;;;4965456;28;20436;-67
2023/07/08 07:44:47;;;;;;;5.93;2.95;;;;;;;;;;4966292;28;20864;-67
2023/07/08 07:47:12;;;;;;;9.27;2.92;;;;;;;;;;4964895;28;20212;-67
2023/07/08 07:49:38;;;;;;;7.78;3.35;;;;;;;;;;4966288;28;20204;-67
2023/07/08 07:52:03;;;;;;;6.03;2.50;;;;;;;;;;4964997;28;20203;-67
2023/07/08 07:54:29;;;;;;;4.70;3.03;;;;;;;;;;4964569;28;20208;-67
2023/07/08 07:56:54;;;;;;;4.32;2.50;;;;;;;;;;4965802;28;20180;-67
2023/07/08 07:59:19;;;;;;;5.22;2.97;;;;;;;;;;4965834;28;20203;-67
2023/07/08 08:01:44;;;;;;;3.53;2.72;;;;;;;;;;4964859;28;20666;-68
2023/07/08 08:04:10;;;;;;;6.73;2.80;;;;;;;;;;4965374;28;20721;-68
2023/07/08 08:06:35;;;;;;;5.15;2.75;;;;;;;;;;4964470;28;21015;-67
2023/07/08 08:09:01;;;;;;;4.13;2.50;;;;;;;;;;4968181;28;20188;-67
2023/07/08 08:11:26;;;;;;;4.60;2.67;;;;;;;;;;4966091;28;26197;-68
2023/07/08 08:13:52;;;;;;;3.97;2.65;;;;;;;;;;4967724;28;20795;-67
2023/07/08 08:16:17;;;;;;;4.88;2.97;;;;;;;;;;4971273;28;20196;-67
2023/07/08 08:18:42;;;;;;;3.40;2.90;;;;;;;;;;4968808;28;20232;-66
2023/07/08 08:21:07;;;;;;;5.93;2.73;;;;;;;;;;4971632;28;20207;-67
2023/07/08 08:23:33;;;;;;;3.47;2.93;;;;;;;;;;4968890;28;20447;-66
2023/07/08 08:25:58;;;;;;;3.72;2.42;;;;;;;;;;4970031;28;20513;-66
2023/07/08 08:28:24;;;;;;;5.05;3.05;;;;;;;;;;4969704;28;20208;-69
2023/07/08 08:30:50;;;;;;;4.55;2.60;;;;;;;;;;4969422;28;20173;-71
2023/07/08 08:33:15;;;;;;;4.10;3.03;;;;;;;;;;4964767;28;20191;-71
2023/07/08 08:35:41;;;;;;;3.83;2.65;;;;;;;;;;4947844;28;20670;-71
2023/07/08 08:38:06;;;;;;;6.25;3.42;;;;;;;;;;4953440;28;20239;-70
2023/07/08 08:40:32;;;;;;;5.00;2.93;;;;;;;;;;4951497;28;20267;-69
2023/07/08 08:43:00;;;;;;;4.80;3.22;;;;;;;;;;4950803;28;20252;-70
2023/07/08 08:45:27;;;;;;;4.88;3.30;;;;;;;;;;4951029;28;20751;-70
2023/07/08 08:47:56;;;;;;;7.40;3.10;;;;;;;;;;4950889;28;20184;-70
2023/07/08 08:50:24;;;;;;;5.32;3.38;;;;;;;;;;4954985;28;20173;-70
2023/07/08 08:52:49;;;;;;;4.70;3.00;;;;;;;;;;4951846;28;20650;-70
2023/07/08 08:55:15;;;;;;;5.70;2.85;;;;;;;;;;4951832;28;20204;-70
2023/07/08 08:57:47;;;;;;;4.68;3.17;;;;;;;;;;4951095;28;20231;-70
2023/07/08 09:00:16;;;;;;;3.50;2.83;;;;;;;;;;4950142;28;20188;-70
2023/07/08 09:03:03;;;;;;;3.00;2.58;;;;;;;;;;4951678;28;21799;-70
2023/07/08 09:05:28;;;;;;;4.75;3.08;;;;;;;;;;4949701;28;20211;-70
2023/07/08 09:08:00;;;;;;;5.63;2.97;;;;;;;;;;4950719;28;20653;-70
2023/07/08 09:10:33;;;;;;;5.47;3.03;;;;;;;;;;4951224;28;20180;-70
2023/07/08 09:13:00;;;;;;;3.97;3.20;;;;;;;;;;4954280;28;20191;-70
2023/07/08 09:15:25;;;;;;;3.80;2.70;;;;;;;;;;4955248;28;20220;-70
2023/07/08 09:17:53;;;;;;;3.80;3.17;;;;;;;;;;4952519;28;20643;-71
2023/07/08 09:20:24;;;;;;;5.25;3.25;;;;;;;;;;4951428;28;20251;-70
2023/07/08 09:22:52;;;;;;;5.10;3.10;;;;;;;;;;4949784;28;20635;-71
2023/07/08 09:25:17;;;;;;;3.42;3.00;;;;;;;;;;4951844;28;20205;-69
2023/07/08 09:27:43;;;;;;;7.40;3.47;;;;;;;;;;4959362;28;20187;-70
2023/07/08 09:30:13;;;;;;;5.77;3.80;;;;;;;;;;4951779;28;20314;-70
2023/07/08 09:32:38;;;;;;;5.00;3.42;;;;;;;;;;4951235;28;20735;-72
2023/07/08 09:35:05;;;;;;;5.80;3.57;;;;;;;;;;4951040;28;20208;-70
2023/07/08 09:37:32;;;;;;;4.22;3.55;;;;;;;;;;4953576;28;20492;-71
2023/07/08 09:39:59;;;;;;;4.43;3.25;;;;;;;;;;4951472;28;20184;-70
2023/07/08 09:42:29;;;;;;;5.45;3.78;;;;;;;;;;4951479;28;20562;-71
2023/07/08 09:44:56;;;;;;;6.38;3.33;;;;;;;;;;4951987;28;20220;-70
2023/07/08 09:47:23;;;;;;;5.47;3.42;;;;;;;;;;4949932;28;20200;-71
2023/07/08 09:49:49;;;;;;;4.28;3.40;;;;;;;;;;4952049;28;20192;-71
2023/07/08 09:52:14;;;;;;;4.40;3.78;;;;;;;;;;4951450;28;20192;-71
2023/07/08 09:54:42;;;;;;;5.70;3.07;;;;;;;;;;4950025;28;20208;-71
2023/07/08 09:57:25;;;;;;;5.57;3.65;;;;;;;;;;4951463;28;20426;-71
2023/07/08 09:59:58;;;;;;;8.25;3.95;;;;;;;;;;4947428;28;20773;-72
2023/07/08 10:02:23;;;;;;;5.13;3.88;;;;;;;;;;4949863;28;20183;-71
2023/07/08 10:04:52;;;;;;;5.43;3.77;;;;;;;;;;4967207;28;20195;-71
2023/07/08 10:07:17;;;;;;;5.95;3.88;;;;;;;;;;4963861;28;20752;-71
2023/07/08 10:09:42;;;;;;;4.40;3.50;;;;;;;;;;4949857;28;20180;-71
2023/07/08 10:12:11;;;;;;;5.03;3.38;;;;;;;;;;4950850;28;20464;-71
2023/07/08 10:14:44;;;;;;;4.53;3.58;;;;;;;;;;4951321;28;20277;-71
2023/07/08 10:17:14;;;;;;;4.68;4.18;;;;;;;;;;4950833;28;20673;-71
2023/07/08 10:19:40;;;;;;;6.68;3.58;;;;;;;;;;4949946;28;20211;-70
2023/07/08 10:22:16;;;;;;;4.38;3.42;;;;;;;;;;4951817;28;20187;-71
2023/07/08 10:24:44;;;;;;;6.10;3.92;;;;;;;;;;4951003;28;20218;-72
2023/07/08 10:27:28;;;;;;;5.97;3.83;;;;;;;;;;4953654;28;20262;-70
2023/07/08 10:29:53;;;;;;;4.22;3.47;;;;;;;;;;4952676;28;20183;-70
2023/07/08 10:32:33;;;;;;;5.30;3.77;;;;;;;;;;4963965;28;20652;-69
2023/07/08 10:34:58;;;;;;;5.85;4.13;;;;;;;;;;4952049;28;20457;-71
2023/07/08 10:37:50;;;;;;;6.63;3.93;;;;;;;;;;4954750;28;20207;-70
2023/07/08 10:40:27;;;;;;;5.82;3.70;;;;;;;;;;4969506;28;20930;-70
2023/07/08 10:42:52;;;;;;;6.82;4.00;;;;;;;;;;4984132;28;20573;-71
2023/07/08 10:45:23;;;;;;;5.40;3.40;;;;;;;;;;4973486;28;20208;-71
2023/07/08 10:47:48;;;;;;;5.10;3.58;;;;;;;;;;4971692;28;20186;-71
2023/07/08 10:50:13;;;;;;;6.17;4.10;;;;;;;;;;4970858;28;20192;-71
2023/07/08 10:52:38;;;;;;;4.83;3.93;;;;;;;;;;4956922;28;21091;-70
2023/07/08 10:55:13;;;;;;;4.93;3.75;;;;;;;;;;4951832;28;20286;-70
2023/07/08 10:57:47;;;;;;;4.88;4.15;;;;;;;;;;4948840;28;20194;-70
2023/07/08 11:00:13;;;;;;;6.18;3.75;;;;;;;;;;4951350;28;20176;-70
2023/07/08 11:02:38;;;;;;;7.50;4.40;;;;;;;;;;4949617;28;20234;-70
2023/07/08 11:05:12;;;;;;;7.37;3.47;;;;;;;;;;4950798;28;20453;-71
2023/07/08 11:07:41;;;;;;;5.50;3.67;;;;;;;;;;4966295;28;20180;-71
2023/07/08 11:10:17;;;;;;;8.07;4.55;;;;;;;;;;4952507;28;20238;-71
2023/07/08 11:12:45;;;;;;;6.80;4.25;;;;;;;;;;4957012;28;20195;-70
2023/07/08 11:15:11;;;;;;;5.53;3.92;;;;;;;;;;4956916;28;20723;-71
2023/07/08 11:18:02;;;;;;;6.00;4.10;;;;;;;;;;4954968;28;20184;-70
2023/07/08 11:20:42;;;;;;;7.28;4.05;;;;;;;;;;4955474;28;20204;-70
2023/07/08 11:23:17;;;;;;;6.35;3.42;;;;;;;;;;4952883;28;20184;-70
2023/07/08 11:25:43;;;;;;;8.60;4.55;;;;;;;;;;4954404;28;20237;-70
2023/07/08 11:28:12;;;;;;;6.97;4.40;;;;;;;;;;4954521;28;20184;-72
2023/07/08 11:30:41;;;;;;;6.35;4.25;;;;;;;;;;4952193;28;20180;-71
2023/07/08 11:33:10;;;;;;;7.78;3.72;;;;;;;;;;4954886;28;20187;-70
2023/07/08 11:35:39;;;;;;;5.85;3.75;;;;;;;;;;4956751;28;20200;-71
2023/07/08 11:38:05;;;;;;;6.38;4.40;;;;;;;;;;4954228;28;20265;-71
2023/07/08 11:40:30;;;;;;;4.70;3.90;;;;;;;;;;4954308;28;20875;-72
2023/07/08 11:43:05;;;;;;;5.63;3.95;;;;;;;;;;4954390;28;20658;-70
2023/07/08 11:45:31;;;;;;;6.07;4.22;;;;;;;;;;4954095;28;20211;-71
2023/07/08 11:48:11;;;;;;;11.90;4.75;;;;;;;;;;4953709;28;20191;-71
2023/07/08 11:50:38;;;;;;;4.80;4.32;;;;;;;;;;4955278;28;20206;-71
2023/07/08 11:53:31;;;;;;;6.45;4.72;;;;;;;;;;4953462;28;20211;-71
2023/07/08 11:55:58;;;;;;;4.68;3.83;;;;;;;;;;4954533;28;20199;-71
2023/07/08 11:58:23;;;;;;;5.63;3.88;;;;;;;;;;4955041;28;20211;-72
2023/07/08 12:00:54;;;;;;;6.87;3.97;;;;;;;;;;4954088;28;20183;-71
2023/07/08 12:03:20;;;;;;;4.63;3.83;;;;;;;;;;4953353;28;20511;-71
2023/07/08 12:05:46;;;;;;;4.93;3.60;;;;;;;;;;4952821;28;20180;-71
2023/07/08 12:08:13;;;;;;;6.67;4.50;;;;;;;;;;4954268;28;20187;-72
2023/07/08 12:10:39;;;;;;;7.07;4.13;;;;;;;;;;4953440;28;20431;-71
2023/07/08 12:13:11;;;;;;;11.13;4.45;;;;;;;;;;4951590;28;20187;-71
2023/07/08 12:15:36;;;;;;;5.68;3.72;;;;;;;;;;4962204;28;20237;-71
2023/07/08 12:18:04;;;;;;;5.73;4.20;;;;;;;;;;4952946;28;20290;-70
2023/07/08 12:20:34;;;;;;;5.65;4.13;;;;;;;;;;4952796;28;20188;-70
2023/07/08 12:23:00;;;;;;;5.60;4.05;;;;;;;;;;4952699;28;21933;-71
2023/07/08 12:25:32;;;;;;;4.85;3.78;;;;;;;;;;4955201;28;20199;-71
2023/07/08 12:27:58;;;;;;;6.65;3.75;;;;;;;;;;4950444;28;20690;-73
2023/07/08 12:30:23;;;;;;;4.40;3.70;;;;;;;;;;4953395;28;20187;-72
2023/07/08 12:32:48;;;;;;;5.93;4.00;;;;;;;;;;4952589;28;20199;-72
2023/07/08 12:35:19;;;;;;;4.78;3.97;;;;;;;;;;4966146;28;20212;-72
2023/07/08 12:37:45;;;;;;;4.97;3.85;;;;;;;;;;4952675;28;20657;-72
2023/07/08 12:40:10;;;;;;;5.55;3.80;;;;;;;;;;4953858;28;20183;-72
2023/07/08 12:42:36;;;;;;;5.43;3.97;;;;;;;;;;4949907;28;20376;-72
2023/07/08 12:45:01;;;;;;;3.97;3.57;;;;;;;;;;4951915;28;20196;-72
2023/07/08 12:47:26;;;;;;;7.13;4.27;;;;;;;;;;4952738;28;20448;-72
2023/07/08 12:49:53;;;;;;;8.38;4.20;;;;;;;;;;4952527;28;20180;-72
2023/07/08 12:52:22;;;;;;;7.30;4.10;;;;;;;;;;4952194;28;20649;-72
2023/07/08 12:54:47;;;;;;;7.53;4.80;;;;;;;;;;4951430;28;20238;-72
2023/07/08 12:57:14;;;;;;;5.90;4.23;;;;;;;;;;4952247;28;21893;-72
2023/07/08 12:59:39;;;;;;;5.05;3.83;;;;;;;;;;4952033;28;20215;-72
2023/07/08 13:02:08;;;;;;;8.10;4.27;;;;;;;;;;4950700;28;20181;-72
2023/07/08 13:04:34;;;;;;;6.03;4.20;;;;;;;;;;4952342;28;21418;-72
2023/07/08 13:07:00;;;;;;;4.35;3.47;;;;;;;;;;4949751;28;20187;-72
2023/07/08 13:09:35;;;;;;;8.18;4.57;;;;;;;;;;4950340;28;20273;-72
2023/07/08 13:12:03;;;;;;;5.15;4.30;;;;;;;;;;4951213;28;20180;-72
2023/07/08 13:14:28;;;;;;;6.50;4.63;;;;;;;;;;4951316;28;20211;-72
2023/07/08 13:16:53;;;;;;;7.88;4.72;;;;;;;;;;4963096;28;20949;-72
2023/07/08 13:19:19;;;;;;;7.72;4.53;;;;;;;;;;4951011;28;20768;-72
2023/07/08 13:21:45;;;;;;;9.68;4.28;;;;;;;;;;4951417;28;20523;-72
2023/07/08 13:24:11;;;;;;;6.18;4.20;;;;;;;;;;4951792;28;20211;-72
2023/07/08 13:26:36;;;;;;;4.70;4.20;;;;;;;;;;4952516;28;20641;-70
2023/07/08 13:29:06;;;;;;;9.48;5.13;;;;;;;;;;4950490;28;20290;-72
2023/07/08 13:31:33;;;;;;;6.15;4.25;;;;;;;;;;4950553;28;20260;-73
2023/07/08 13:34:05;;;;;;;5.03;4.05;;;;;;;;;;4950391;28;20204;-72
2023/07/08 13:36:35;;;;;;;6.30;4.57;;;;;;;;;;4950754;28;20176;-72
2023/07/08 13:39:06;;;;;;;6.40;4.38;;;;;;;;;;4950916;28;20297;-72
2023/07/08 13:41:31;;;;;;;11.50;4.72;;;;;;;;;;4950656;28;20198;-72
2023/07/08 13:44:03;;;;;;;6.30;4.33;;;;;;;;;;4949407;28;20703;-73
2023/07/08 13:46:30;;;;;;;5.97;4.20;;;;;;;;;;4952076;28;20438;-71
2023/07/08 13:48:55;;;;;;;7.40;4.32;;;;;;;;;;4951560;28;20180;-72
2023/07/08 13:51:22;;;;;;;7.83;4.47;;;;;;;;;;4953022;28;20246;-72
2023/07/08 13:53:52;;;;;;;5.95;4.45;;;;;;;;;;4950085;28;20438;-72
2023/07/08 13:56:22;;;;;;;6.28;4.50;;;;;;;;;;4950982;28;20180;-72
2023/07/08 13:58:49;;;;;;;7.28;5.22;;;;;;;;;;4951173;28;20203;-72
2023/07/08 14:01:23;;;;;;;5.72;4.28;;;;;;;;;;4950543;28;21896;-72
2023/07/08 14:03:48;;;;;;;6.15;4.45;;;;;;;;;;4949012;28;20206;-72
2023/07/08 14:06:15;;;;;;;5.40;4.00;;;;;;;;;;4950246;28;20187;-72
2023/07/08 14:08:40;;;;;;;7.53;4.50;;;;;;;;;;4950568;28;20606;-72
2023/07/08 14:11:05;;;;;;;4.67;4.00;;;;;;;;;;4950472;28;20188;-72
2023/07/08 14:13:31;;;;;;;5.90;4.07;;;;;;;;;;4951066;28;20430;-72
2023/07/08 14:15:56;;;;;;;5.47;3.97;;;;;;;;;;4955641;28;20246;-72
2023/07/08 14:18:21;;;;;;;5.88;4.20;;;;;;;;;;4949543;28;20811;-72
2023/07/08 14:20:47;;;;;;;5.93;4.18;;;;;;;;;;4951075;28;20249;-72
2023/07/08 14:23:12;;;;;;;5.87;4.10;;;;;;;;;;4950356;28;20191;-72
2023/07/08 14:25:38;;;;;;;7.00;4.20;;;;;;;;;;4951605;28;20693;-72
2023/07/08 14:28:05;;;;;;;5.93;4.22;;;;;;;;;;4951259;28;20187;-72
2023/07/08 14:30:30;;;;;;;6.47;4.38;;;;;;;;;;4947928;28;20609;-72
2023/07/08 14:32:56;;;;;;;7.30;4.43;;;;;;;;;;4950946;28;20195;-72
2023/07/08 14:35:25;;;;;;;6.65;4.35;;;;;;;;;;4950581;28;20689;-72
2023/07/08 14:37:51;;;;;;;6.78;4.30;;;;;;;;;;4951090;28;20211;-72
2023/07/08 14:40:23;;;;;;;5.32;4.25;;;;;;;;;;4952338;28;20262;-72
2023/07/08 14:42:48;;;;;;;5.75;3.92;;;;;;;;;;4965585;28;21164;-72
2023/07/08 14:45:13;;;;;;;5.75;4.13;;;;;;;;;;4953942;28;20204;-72